createdAt,value
2022-08-12T00:00:51.227Z,99.90
2022-08-12T00:03:36.647Z,99.90
2022-08-12T00:06:25.820Z,99.90
2022-08-12T00:09:12.141Z,99.90
2022-08-12T00:11:57.590Z,99.90
2022-08-12T00:14:42.890Z,99.90
2022-08-12T00:17:28.379Z,99.90
2022-08-12T00:20:13.677Z,99.90
2022-08-12T00:23:00.165Z,99.90
2022-08-12T00:26:23.343Z,99.90
2022-08-12T00:29:14.055Z,99.90
2022-08-12T00:32:01.310Z,99.90
2022-08-12T00:34:51.735Z,99.90
2022-08-12T00:37:39.073Z,99.90
2022-08-12T00:40:26.411Z,99.90
2022-08-12T00:42:53.932Z,99.90
2022-08-12T00:45:21.335Z,99.90
2022-08-12T00:47:51.623Z,99.90
2022-08-12T00:50:21.223Z,99.90
2022-08-12T00:52:50.235Z,99.90
2022-08-12T00:55:18.481Z,99.90
2022-08-12T00:57:48.766Z,99.90
2022-08-12T01:00:21.514Z,99.90
2022-08-12T01:02:58.149Z,99.90
2022-08-12T01:05:44.422Z,99.90
2022-08-12T01:08:49.978Z,99.90
2022-08-12T01:11:29.495Z,99.90
2022-08-12T01:13:58.485Z,99.90
2022-08-12T01:16:26.368Z,99.90
2022-08-12T01:18:55.102Z,99.90
2022-08-12T01:21:28.164Z,99.90
2022-08-12T01:24:30.603Z,99.90
2022-08-12T01:26:59.398Z,99.90
2022-08-12T01:29:32.940Z,99.90
2022-08-12T01:32:05.431Z,99.90
2022-08-12T01:34:37.450Z,99.90
2022-08-12T01:37:07.996Z,99.90
2022-08-12T01:40:31.554Z,99.90
2022-08-12T01:42:51.986Z,99.90
2022-08-12T01:45:24.703Z,99.90
2022-08-12T01:48:13.658Z,99.90
2022-08-12T01:52:14.690Z,99.90
2022-08-12T01:54:06.121Z,99.90
2022-08-12T01:56:52.099Z,99.90
2022-08-12T01:59:47.069Z,99.90
2022-08-12T02:02:46.467Z,99.90
2022-08-12T02:05:48.577Z,99.90
2022-08-12T02:08:36.451Z,99.90
2022-08-12T02:11:18.406Z,99.90
2022-08-12T02:14:03.399Z,99.90
2022-08-12T02:16:39.126Z,99.90
2022-08-12T02:19:30.811Z,99.90
2022-08-12T02:22:22.191Z,99.90
2022-08-12T02:24:50.906Z,99.90
2022-08-12T02:27:20.476Z,99.90
2022-08-12T02:29:48.701Z,99.90
2022-08-12T02:32:16.002Z,99.90
2022-08-12T02:34:44.687Z,99.90
2022-08-12T02:37:15.428Z,99.90
2022-08-12T02:39:49.797Z,99.90
2022-08-12T02:42:20.585Z,99.90
2022-08-12T02:44:53.204Z,99.90
2022-08-12T02:47:58.284Z,99.90
2022-08-12T02:50:11.280Z,99.90
2022-08-12T02:52:38.770Z,99.90
2022-08-12T02:55:34.409Z,99.90
2022-08-12T02:58:09.123Z,99.90
2022-08-12T03:00:40.619Z,99.90
2022-08-12T03:03:10.133Z,99.90
2022-08-12T03:05:49.007Z,99.90
2022-08-12T03:08:31.922Z,99.90
2022-08-12T03:11:14.297Z,99.90
2022-08-12T03:13:47.157Z,99.90
2022-08-12T03:16:14.872Z,99.90
2022-08-12T03:18:46.183Z,99.90
2022-08-12T03:21:16.771Z,99.90
2022-08-12T03:23:46.148Z,99.90
2022-08-12T03:26:14.793Z,99.90
2022-08-12T03:28:51.790Z,99.90
2022-08-12T03:31:22.005Z,99.90
2022-08-12T03:34:01.483Z,99.90
2022-08-12T03:36:33.499Z,99.90
2022-08-12T03:39:17.784Z,99.90
2022-08-12T03:41:58.100Z,99.90
2022-08-12T03:44:49.769Z,99.90
2022-08-12T03:47:41.389Z,99.90
2022-08-12T03:50:27.060Z,99.90
2022-08-12T03:53:12.401Z,99.90
2022-08-12T03:55:58.355Z,99.90
2022-08-12T03:58:44.612Z,99.90
2022-08-12T04:01:13.098Z,99.90
2022-08-12T04:03:52.463Z,99.90
2022-08-12T04:06:35.082Z,99.90
2022-08-12T04:09:16.152Z,99.90
2022-08-12T04:12:03.793Z,99.90
2022-08-12T04:14:31.694Z,99.90
2022-08-12T04:16:59.019Z,99.90
2022-08-12T04:19:26.665Z,99.90
2022-08-12T04:22:01.875Z,99.90
2022-08-12T04:24:35.256Z,99.90
2022-08-12T04:27:08.663Z,99.90
2022-08-12T04:30:30.607Z,99.90
2022-08-12T04:32:27.821Z,99.90
2022-08-12T04:34:55.292Z,99.90
2022-08-12T04:37:23.295Z,99.90
2022-08-12T04:39:51.129Z,99.90
2022-08-12T04:42:20.174Z,99.90
2022-08-12T04:44:47.185Z,99.90
2022-08-12T04:47:15.278Z,99.90
2022-08-12T04:49:44.624Z,99.90
2022-08-12T04:52:12.407Z,99.90
2022-08-12T04:54:39.237Z,99.90
2022-08-12T04:57:09.523Z,99.90
2022-08-12T04:59:46.906Z,99.90
2022-08-12T05:02:20.853Z,99.90
2022-08-12T05:04:56.263Z,99.90
2022-08-12T05:07:27.961Z,99.90
2022-08-12T05:09:58.709Z,99.90
2022-08-12T05:12:39.741Z,99.90
2022-08-12T05:15:19.734Z,99.90
2022-08-12T05:17:55.565Z,99.90
2022-08-12T05:20:23.062Z,99.90
2022-08-12T05:22:50.071Z,99.90
2022-08-12T05:25:21.317Z,99.90
2022-08-12T05:27:58.555Z,99.90
2022-08-12T05:30:27.461Z,99.90
2022-08-12T05:32:59.950Z,99.90
2022-08-12T05:35:27.777Z,99.90
2022-08-12T05:38:14.840Z,99.90
2022-08-12T05:40:42.162Z,99.90
2022-08-12T05:43:09.117Z,99.90
2022-08-12T05:45:37.495Z,99.90
2022-08-12T05:48:07.186Z,99.90
2022-08-12T05:50:35.673Z,99.90
2022-08-12T05:53:03.127Z,99.90
2022-08-12T05:55:31.795Z,99.90
2022-08-12T05:57:59.400Z,99.90
2022-08-12T06:00:26.860Z,99.90
2022-08-12T06:02:57.127Z,99.90
2022-08-12T06:05:24.037Z,99.90
2022-08-12T06:08:01.438Z,99.90
2022-08-12T06:10:33.280Z,99.90
2022-08-12T06:13:02.655Z,99.90
2022-08-12T06:15:30.616Z,99.90
2022-08-12T06:18:16.278Z,99.90
2022-08-12T06:20:46.708Z,99.90
2022-08-12T06:23:15.353Z,99.90
2022-08-12T06:25:46.598Z,99.90
2022-08-12T06:28:17.527Z,99.90
2022-08-12T06:31:02.623Z,99.90
2022-08-12T06:33:59.791Z,99.90
2022-08-12T06:36:29.520Z,99.90
2022-08-12T06:38:57.140Z,99.90
2022-08-12T06:42:04.922Z,99.90
2022-08-12T06:44:29.470Z,99.90
2022-08-12T06:46:56.826Z,99.90
2022-08-12T06:49:25.221Z,99.90
2022-08-12T06:51:56.155Z,99.90
2022-08-12T06:54:31.173Z,99.90
2022-08-12T06:57:05.297Z,99.90
2022-08-12T06:59:46.920Z,99.90
2022-08-12T07:02:13.785Z,99.90
2022-08-12T07:04:40.725Z,99.90
2022-08-12T07:07:09.022Z,99.90
2022-08-12T07:10:06.511Z,99.90
2022-08-12T07:12:26.987Z,99.90
2022-08-12T07:14:55.786Z,99.90
2022-08-12T07:17:23.751Z,99.90
2022-08-12T07:19:52.031Z,99.90
2022-08-12T07:22:19.154Z,99.90
2022-08-12T07:25:05.961Z,99.90
2022-08-12T07:27:40.682Z,99.90
2022-08-12T07:30:09.842Z,99.90
2022-08-12T07:32:36.975Z,99.90
2022-08-12T07:35:04.329Z,97.50
2022-08-12T07:37:31.483Z,91.70
2022-08-12T07:40:00.439Z,81.10
2022-08-12T07:42:31.284Z,71.40
2022-08-12T07:44:59.519Z,62.30
2022-08-12T07:47:27.402Z,53.20
2022-08-12T07:50:06.282Z,50.40
2022-08-12T07:52:43.105Z,45.60
2022-08-12T07:55:11.750Z,42.10
2022-08-12T07:58:08.735Z,39.90
2022-08-12T08:00:38.628Z,38.30
2022-08-12T08:03:11.496Z,37.20
2022-08-12T08:05:46.285Z,37.20
2022-08-12T08:08:19.571Z,37.40
2022-08-12T08:10:51.602Z,36.70
2022-08-12T08:13:19.125Z,36.20
2022-08-12T08:16:02.974Z,35.00
2022-08-12T08:18:37.437Z,34.20
2022-08-12T08:21:05.770Z,32.90
2022-08-12T08:23:56.429Z,32.70
2022-08-12T08:26:27.396Z,32.20
2022-08-12T08:28:57.508Z,30.90
2022-08-12T08:31:26.317Z,30.30
2022-08-12T08:34:05.416Z,30.70
2022-08-12T08:36:45.389Z,30.30
2022-08-12T08:39:19.164Z,29.40
2022-08-12T08:42:14.032Z,29.10
2022-08-12T08:44:58.413Z,29.10
2022-08-12T08:47:30.006Z,28.40
2022-08-12T08:50:01.595Z,27.70
2022-08-12T08:52:40.562Z,29.40
2022-08-12T08:55:14.304Z,29.20
2022-08-12T08:57:52.973Z,29.10
2022-08-12T09:00:22.996Z,29.40
2022-08-12T09:02:59.083Z,30.20
2022-08-12T09:05:43.161Z,30.90
2022-08-12T09:17:00.111Z,30.40
2022-08-12T09:19:28.014Z,30.00
2022-08-12T09:21:55.683Z,29.90
2022-08-12T09:24:22.500Z,28.80
2022-08-12T09:26:49.648Z,29.10
2022-08-12T09:30:10.417Z,29.00
2022-08-12T09:32:11.553Z,28.90
2022-08-12T09:34:56.663Z,29.00
2022-08-12T09:37:26.637Z,29.10
2022-08-12T09:40:05.679Z,29.30
2022-08-12T09:43:16.072Z,28.10
2022-08-12T09:46:06.731Z,28.00
2022-08-12T09:48:36.267Z,29.20
2022-08-12T09:51:17.190Z,28.70
2022-08-12T09:54:05.650Z,28.80
2022-08-12T09:57:00.873Z,28.10
2022-08-12T10:00:15.966Z,27.10
2022-08-12T10:02:42.323Z,27.30
2022-08-12T10:05:01.794Z,28.10
2022-08-12T10:07:40.048Z,27.80
2022-08-12T10:10:24.322Z,27.60
2022-08-12T10:13:13.727Z,28.10
2022-08-12T10:16:01.764Z,27.80
2022-08-12T10:18:32.846Z,28.10
2022-08-12T10:21:09.521Z,28.30
2022-08-12T10:23:39.820Z,29.00
2022-08-12T10:26:37.722Z,28.70
2022-08-12T10:30:41.035Z,28.90
2022-08-12T10:33:02.439Z,28.50
2022-08-12T10:35:08.878Z,28.30
2022-08-12T10:38:36.133Z,27.10
2022-08-12T10:40:28.642Z,26.90
2022-08-12T10:43:16.839Z,26.60
2022-08-12T10:45:45.951Z,26.90
2022-08-12T10:48:21.595Z,27.20
2022-08-12T10:51:01.838Z,27.70
2022-08-12T10:53:44.018Z,27.50
2022-08-12T10:56:11.754Z,27.80
2022-08-12T10:58:39.183Z,28.10
2022-08-12T11:04:14.320Z,27.70
2022-08-12T11:04:25.627Z,27.10
2022-08-12T11:07:09.743Z,27.00
2022-08-12T11:09:54.339Z,27.70
2022-08-12T11:12:56.458Z,28.20
2022-08-12T11:15:19.378Z,28.90
2022-08-12T11:17:53.187Z,29.30
2022-08-12T11:20:24.076Z,29.50
2022-08-12T11:23:04.113Z,28.80
2022-08-12T11:25:55.864Z,29.50
2022-08-12T11:28:33.923Z,28.80
2022-08-12T11:31:03.337Z,28.40
2022-08-12T11:34:05.378Z,28.90
2022-08-12T11:36:18.239Z,30.00
2022-08-12T11:38:50.932Z,31.10
2022-08-12T11:41:31.092Z,31.10
2022-08-12T11:44:33.390Z,32.20
2022-08-12T11:46:51.242Z,31.90
2022-08-12T11:49:32.323Z,32.20
2022-08-12T11:52:03.897Z,32.40
2022-08-12T11:54:31.607Z,31.90
2022-08-12T11:57:01.903Z,32.20
2022-08-12T12:02:01.209Z,31.00
2022-08-12T12:02:20.773Z,30.50
2022-08-12T12:04:52.534Z,29.60
2022-08-12T12:08:38.742Z,29.60
2022-08-12T12:10:16.042Z,28.90
2022-08-12T12:12:49.919Z,29.30
2022-08-12T12:15:25.343Z,30.30
2022-08-12T12:18:04.252Z,29.40
2022-08-12T12:20:31.235Z,30.10
2022-08-12T12:22:58.110Z,29.80
2022-08-12T12:25:59.565Z,29.50
2022-08-12T12:28:37.393Z,29.50
2022-08-12T12:31:00.055Z,29.50
2022-08-12T12:33:27.231Z,29.90
2022-08-12T12:36:22.118Z,29.90
2022-08-12T12:38:52.154Z,30.10
2022-08-12T12:41:19.332Z,29.90
2022-08-12T12:43:47.587Z,29.40
2022-08-12T12:46:31.278Z,30.00
2022-08-12T12:48:58.166Z,30.40
2022-08-12T12:51:56.419Z,29.90
2022-08-12T12:54:12.570Z,30.80
2022-08-12T12:56:42.269Z,30.00
2022-08-12T12:59:55.397Z,30.00
2022-08-12T13:02:02.056Z,29.20
2022-08-12T13:04:34.923Z,29.10
2022-08-12T13:07:02.131Z,28.90
2022-08-12T13:09:35.794Z,28.80
2022-08-12T13:12:05.074Z,30.00
2022-08-12T13:14:35.176Z,30.00
2022-08-12T13:17:06.380Z,29.60
2022-08-12T13:19:44.518Z,29.90
2022-08-12T13:22:23.531Z,29.20
2022-08-12T13:24:56.366Z,29.00
2022-08-12T13:27:35.430Z,30.00
2022-08-12T13:30:17.640Z,30.50
2022-08-12T13:32:57.271Z,31.00
2022-08-12T13:36:05.817Z,30.50
2022-08-12T13:38:54.148Z,30.70
2022-08-12T13:41:33.834Z,30.30
2022-08-12T13:44:02.936Z,31.20
2022-08-12T13:46:34.558Z,32.40
2022-08-12T13:49:03.210Z,32.00
2022-08-12T13:51:40.906Z,31.50
2022-08-12T13:54:11.656Z,31.90
2022-08-12T13:56:49.990Z,32.10
2022-08-12T13:59:24.528Z,32.50
2022-08-12T14:01:57.913Z,32.40
2022-08-12T14:04:25.423Z,32.90
2022-08-12T14:06:58.337Z,32.30
2022-08-12T14:09:30.168Z,32.80
2022-08-12T14:12:10.477Z,32.90
2022-08-12T14:14:52.477Z,33.30
2022-08-12T14:17:30.377Z,32.90
2022-08-12T14:20:14.389Z,33.00
2022-08-12T14:22:41.488Z,32.60
2022-08-12T14:25:16.922Z,32.30
2022-08-12T14:28:03.865Z,32.00
2022-08-12T14:30:31.472Z,32.30
2022-08-12T14:33:03.321Z,32.50
2022-08-12T14:35:34.026Z,32.90
2022-08-12T14:38:25.449Z,34.00
2022-08-12T14:40:58.328Z,34.10
2022-08-12T14:43:31.708Z,34.10
2022-08-12T14:46:16.575Z,33.90
2022-08-12T14:48:46.264Z,34.00
2022-08-12T14:52:42.660Z,34.80
2022-08-12T14:56:58.296Z,36.50
2022-08-12T14:57:20.156Z,37.20
2022-08-12T15:00:14.008Z,38.00
2022-08-12T15:02:40.986Z,38.50
2022-08-12T15:05:08.693Z,39.50
2022-08-12T15:07:49.020Z,38.30
2022-08-12T15:10:31.129Z,38.30
2022-08-12T15:12:59.834Z,37.40
2022-08-12T15:15:29.602Z,38.20
2022-08-12T15:18:02.957Z,37.80
2022-08-12T15:20:32.979Z,37.90
2022-08-12T15:23:06.061Z,38.20
2022-08-12T15:25:49.303Z,37.50
2022-08-12T15:28:33.514Z,37.90
2022-08-12T15:31:21.609Z,38.20
2022-08-12T15:33:58.148Z,38.80
2022-08-12T15:36:55.345Z,38.70
2022-08-12T15:39:16.530Z,38.50
2022-08-12T15:41:49.567Z,38.90
2022-08-12T15:44:38.233Z,39.40
2022-08-12T15:47:04.804Z,38.80
2022-08-12T15:49:54.158Z,39.40
2022-08-12T15:52:27.556Z,38.30
2022-08-12T15:54:58.850Z,38.20
2022-08-12T15:57:35.997Z,38.20
2022-08-12T16:00:06.832Z,38.20
2022-08-12T16:02:50.702Z,38.70
2022-08-12T16:06:10.279Z,38.20
2022-08-12T16:08:17.088Z,38.20
2022-08-12T16:10:45.581Z,39.10
2022-08-12T16:13:15.054Z,39.10
2022-08-12T16:15:51.053Z,39.50
2022-08-12T16:18:37.327Z,39.40
2022-08-12T16:21:10.435Z,38.90
2022-08-12T16:23:57.995Z,39.80
2022-08-12T16:26:32.151Z,40.10
2022-08-12T16:29:14.972Z,40.40
2022-08-12T16:31:43.382Z,40.90
2022-08-12T16:34:39.796Z,40.50
2022-08-12T16:37:08.725Z,40.60
2022-08-12T16:39:59.913Z,40.90
2022-08-12T16:42:28.272Z,41.50
2022-08-12T16:45:02.031Z,42.10
2022-08-12T16:47:57.489Z,42.10
2022-08-12T16:50:31.007Z,42.60
2022-08-12T16:52:59.904Z,42.90
2022-08-12T16:55:35.070Z,43.40
2022-08-12T16:58:28.412Z,44.10
2022-08-12T17:00:58.723Z,44.50
2022-08-12T17:03:30.571Z,44.80
2022-08-12T17:05:57.478Z,45.10
2022-08-12T17:08:29.097Z,45.10
2022-08-12T17:10:56.359Z,45.60
2022-08-12T17:13:26.261Z,45.90
2022-08-12T17:16:04.945Z,45.50
2022-08-12T17:18:42.964Z,45.20
2022-08-12T17:21:12.072Z,45.40
2022-08-12T17:23:48.660Z,45.00
2022-08-12T17:26:28.342Z,44.70
2022-08-12T17:28:59.409Z,44.90
2022-08-12T17:32:01.007Z,45.40
2022-08-12T17:34:38.292Z,45.60
2022-08-12T17:37:10.638Z,44.70
2022-08-12T17:40:12.530Z,44.50
2022-08-12T17:42:32.759Z,45.00
2022-08-12T17:45:01.936Z,44.80
2022-08-12T17:48:04.543Z,44.50
2022-08-12T17:50:43.341Z,44.60
2022-08-12T17:53:11.419Z,44.50
2022-08-12T17:55:47.294Z,44.70
2022-08-12T17:58:17.074Z,45.00
2022-08-12T18:00:45.716Z,44.80
2022-08-12T18:04:05.733Z,45.30
2022-08-12T18:06:13.760Z,45.10
2022-08-12T18:08:53.547Z,45.20
2022-08-12T18:12:04.306Z,45.70
2022-08-12T18:14:30.733Z,46.70
2022-08-12T18:17:01.825Z,47.00
2022-08-12T18:20:03.759Z,47.40
2022-08-12T18:22:22.033Z,47.90
2022-08-12T18:25:18.682Z,48.50
2022-08-12T18:28:15.058Z,48.10
2022-08-12T18:30:53.378Z,48.60
2022-08-12T18:33:26.083Z,48.90
2022-08-12T18:35:56.785Z,49.50
2022-08-12T18:38:25.746Z,49.40
2022-08-12T18:41:21.950Z,49.80
2022-08-12T18:44:00.003Z,50.30
2022-08-12T18:46:53.287Z,50.50
2022-08-12T18:49:37.895Z,51.30
2022-08-12T18:52:08.000Z,51.50
2022-08-12T18:54:49.785Z,51.70
2022-08-12T18:58:07.619Z,51.90
2022-08-12T19:00:20.888Z,51.80
2022-08-12T19:02:50.870Z,52.40
2022-08-12T19:05:17.869Z,52.40
2022-08-12T19:08:00.132Z,52.40
2022-08-12T19:10:30.672Z,52.90
2022-08-12T19:13:22.990Z,52.70
2022-08-12T19:15:50.380Z,53.10
2022-08-12T19:18:17.755Z,53.50
2022-08-12T19:20:50.398Z,53.30
2022-08-12T19:23:21.409Z,53.90
2022-08-12T19:25:59.729Z,54.30
2022-08-12T19:28:34.134Z,54.60
2022-08-12T19:31:45.277Z,54.70
2022-08-12T19:35:32.806Z,54.60
2022-08-12T19:38:04.332Z,54.60
2022-08-12T19:40:31.613Z,55.00
2022-08-12T19:43:13.383Z,55.30
2022-08-12T19:45:51.474Z,55.80
2022-08-12T19:48:19.990Z,56.10
2022-08-12T19:50:49.915Z,56.10
2022-08-12T19:53:18.674Z,56.30
2022-08-12T19:55:51.766Z,56.60
2022-08-12T19:58:20.274Z,57.00
2022-08-12T20:00:53.330Z,57.30
2022-08-12T20:03:38.276Z,57.50
2022-08-12T20:06:23.532Z,58.00
2022-08-12T20:08:56.765Z,58.50
2022-08-12T20:12:11.892Z,58.60
2022-08-12T20:14:19.322Z,58.90
2022-08-12T20:16:53.228Z,59.30
2022-08-12T20:20:05.472Z,59.60
2022-08-12T20:22:24.291Z,59.70
2022-08-12T20:25:01.796Z,60.10
2022-08-12T20:28:05.211Z,60.50
2022-08-12T20:30:16.194Z,61.00
2022-08-12T20:32:56.718Z,62.00
2022-08-12T20:36:06.755Z,62.40
2022-08-12T20:38:26.030Z,63.00
2022-08-12T20:40:55.405Z,63.70
2022-08-12T20:43:24.181Z,63.90
2022-08-12T20:45:57.374Z,64.20
2022-08-12T20:48:28.702Z,65.00
2022-08-12T20:51:04.065Z,65.40
2022-08-12T20:53:57.443Z,65.60
2022-08-12T20:56:35.130Z,66.00
2022-08-12T20:59:06.071Z,66.00
2022-08-12T21:01:47.122Z,66.70
2022-08-12T21:04:35.501Z,66.90
2022-08-12T21:07:09.371Z,67.80
2022-08-12T21:09:50.343Z,68.60
2022-08-12T21:12:31.340Z,68.70
2022-08-12T21:15:22.869Z,69.00
2022-08-12T21:18:11.069Z,70.00
2022-08-12T21:20:52.521Z,70.90
2022-08-12T21:23:21.449Z,71.70
2022-08-12T21:25:51.324Z,72.40
2022-08-12T21:28:20.699Z,73.20
2022-08-12T21:31:11.007Z,74.10
2022-08-12T21:33:58.675Z,75.10
2022-08-12T21:36:32.252Z,76.50
2022-08-12T21:39:18.230Z,77.50
2022-08-12T21:41:50.191Z,78.20
2022-08-12T21:44:24.837Z,79.20
2022-08-12T21:47:21.196Z,80.70
2022-08-12T21:50:03.527Z,82.50
2022-08-12T21:52:43.384Z,84.90
2022-08-12T21:55:18.164Z,87.30
2022-08-12T21:57:53.477Z,90.00
2022-08-12T22:00:32.438Z,91.10
2022-08-12T22:04:01.585Z,93.00
2022-08-12T22:06:19.968Z,94.90
2022-08-12T22:08:57.774Z,96.70
2022-08-12T22:11:41.139Z,99.10
2022-08-12T22:14:10.382Z,99.90
2022-08-12T22:16:53.420Z,99.90
2022-08-12T22:19:21.472Z,99.90
2022-08-12T22:21:54.887Z,99.90
2022-08-12T22:24:26.750Z,99.90
2022-08-12T22:27:08.014Z,99.90
2022-08-12T22:30:04.155Z,99.90
2022-08-12T22:32:31.340Z,99.90
2022-08-12T22:35:23.219Z,99.90
2022-08-12T22:37:53.634Z,99.90
2022-08-12T22:40:22.968Z,99.90
2022-08-12T22:43:09.083Z,99.90
2022-08-12T22:46:00.820Z,99.90
2022-08-12T22:48:27.651Z,99.90
2022-08-12T22:50:59.207Z,99.90
2022-08-12T22:53:35.875Z,99.90
2022-08-12T22:56:06.751Z,99.90
2022-08-12T22:58:40.606Z,99.90
2022-08-12T23:01:10.808Z,99.90
2022-08-12T23:03:48.205Z,99.90
2022-08-12T23:06:23.827Z,99.90
2022-08-12T23:08:52.259Z,99.90
2022-08-12T23:11:23.838Z,99.90
2022-08-12T23:13:56.972Z,99.90
2022-08-12T23:16:31.035Z,99.90
2022-08-12T23:19:10.544Z,99.90
2022-08-12T23:22:06.167Z,99.90
2022-08-12T23:24:55.523Z,99.90
2022-08-12T23:27:44.133Z,99.90
2022-08-12T23:30:24.733Z,99.90
2022-08-12T23:33:00.050Z,99.90
2022-08-12T23:35:45.364Z,99.90
2022-08-12T23:38:30.973Z,99.90
2022-08-12T23:41:03.384Z,99.90
2022-08-12T23:43:39.146Z,99.90
2022-08-12T23:46:08.682Z,99.90
2022-08-12T23:48:37.587Z,99.90
2022-08-12T23:51:22.318Z,99.90
2022-08-12T23:54:02.520Z,99.90
2022-08-12T23:56:33.220Z,99.90
2022-08-12T23:59:02.763Z,99.90
